OMFJ/FJR METAR and TAF weather

Enter ICAO airport designator
Station Type Date Time Source
OMFJ METAR 2018/12/10 02:00 UTC NOAA

OMFJ 100200Z 31008KT 270V340 9999 FEW030 24/17 Q1014 RMK A2996


Station Type Date Time Source
OMFJ Decoded METAR 2018/12/10 02:00 UTC NOAA

Fujairah, United Arab Emirates (OMFJ) 25-06N 056-20E 28M
Dec 09, 2018 - 09:00 PM EST / 2018.12.10 0200 UTC
Wind: from the NW (310 degrees) at 9 MPH (8 KT) (direction variable):0
Visibility: greater than 7 mile(s):0
Sky conditions: mostly clear
Temperature: 75 F (24 C)
Dew Point: 62 F (17 C)
Relative Humidity: 64%
Pressure (altimeter): 29.94 in. Hg (1014 hPa)
ob: OMFJ 100200Z 31008KT 270V340 9999 FEW030 24/17 Q1014 RMK A2996
cycle: 2

Station Type Date Time Source
OMFJ TAF 2018/12/09 18:03 UTC NOAA

TAF TAF OMFJ 091700Z 0918/1024 30010KT 8000 NSC PROB30 0920/1003 30015G25KT 5000 BLDU
BECMG 1006/1008 08008KT
BECMG 1014/1016 29010KT


Example: see airport list